Aberdeen, SD - Weather Station Data
Daily Summary for March 14, 2018 Units:  English    Metric   Both
« Previous Day
Next Day »
Daily Weekly Monthly Yearly Custom
  High: Low: Average:
Temperature: 38.4 °F 22.8 °F 31 °F
Dew Point: 29.0 °F 19.0 °F 24.6 °F
Humidity: 86% 65% 78%
Wind Speed: 11.0mph 0.0mph 3.5mph
Wind Gust: 14.0mph - -
Wind- - SE
Pressure: 30.17 in 29.96 in -
Precipitation: 0.00 in    
Historical Graphs
 
 
Tabular Data for March 14, 2018
Time Temperature Dew Point Pressure Wind Wind Speed Wind Gust Humidity Rainfall Rate (Hourly) solar Conditions
00:13 29.5 °F 24.0 °F 30.17 in SSW 8.0 mph 10.0 mph 81% 0.00 in 0 W/m2
00:28 29.1 °F 24.0 °F 30.17 in SSW 4.0 mph 10.0 mph 81% 0.00 in 0 W/m2
00:43 29.4 °F 24.0 °F 30.17 in SW 3.0 mph 10.0 mph 80% 0.00 in 0 W/m2
00:59 29.4 °F 24.0 °F 30.16 in SSW 4.0 mph 10.0 mph 80% 0.00 in 0 W/m2
01:14 29.4 °F 24.0 °F 30.15 in South 4.0 mph 10.0 mph 80% 0.00 in 0 W/m2
01:29 28.9 °F 23.0 °F 30.15 in SW 3.0 mph 7.0 mph 80% 0.00 in 0 W/m2
01:44 28.6 °F 23.0 °F 30.14 in SSW 4.0 mph 9.0 mph 80% 0.00 in 0 W/m2
01:59 28.5 °F 23.0 °F 30.13 in SSW 3.0 mph 10.0 mph 81% 0.00 in 0 W/m2
02:14 28.0 °F 23.0 °F 30.12 in SSE 1.0 mph 6.0 mph 81% 0.00 in 0 W/m2
02:29 27.6 °F 23.0 °F 30.12 in SSW 2.0 mph 6.0 mph 81% 0.00 in 0 W/m2
02:44 27.4 °F 23.0 °F 30.11 in SSW 3.0 mph 5.0 mph 82% 0.00 in 0 W/m2
02:59 27.0 °F 22.0 °F 30.11 in SSW 1.0 mph 5.0 mph 82% 0.00 in 0 W/m2
03:14 26.5 °F 22.0 °F 30.09 in SSW 2.0 mph 4.0 mph 82% 0.00 in 0 W/m2
03:29 26.2 °F 22.0 °F 30.09 in SSW 2.0 mph 5.0 mph 83% 0.00 in 0 W/m2
03:44 25.9 °F 21.0 °F 30.08 in SSW 2.0 mph 4.0 mph 83% 0.00 in 0 W/m2
03:59 25.6 °F 21.0 °F 30.07 in SSW 3.0 mph 5.0 mph 83% 0.00 in 0 W/m2
04:14 25.4 °F 21.0 °F 30.07 in SSW 1.0 mph 4.0 mph 83% 0.00 in 0 W/m2
04:29 24.9 °F 21.0 °F 30.07 in SW 3.0 mph 6.0 mph 84% 0.00 in 0 W/m2
04:44 24.6 °F 20.0 °F 30.06 in Calm   3.0 mph 84% 0.00 in 0 W/m2
04:59 24.0 °F 20.0 °F 30.06 in Calm   2.0 mph 84% 0.00 in 0 W/m2
05:14 23.6 °F 20.0 °F 30.05 in Calm   3.0 mph 84% 0.00 in 0 W/m2
05:29 23.6 °F 20.0 °F 30.05 in Calm   1.0 mph 85% 0.00 in 0 W/m2
05:44 23.3 °F 20.0 °F 30.05 in Calm   1.0 mph 85% 0.00 in 0 W/m2
05:59 23.0 °F 19.0 °F 30.04 in Calm   2.0 mph 85% 0.00 in 0 W/m2
06:14 23.3 °F 20.0 °F 30.04 in SW 1.0 mph 2.0 mph 86% 0.00 in 0 W/m2
06:29 23.2 °F 20.0 °F 30.03 in Calm   3.0 mph 86% 0.00 in 0 W/m2
06:44 22.9 °F 19.0 °F 30.02 in SW 2.0 mph 4.0 mph 86% 0.00 in 0 W/m2
07:00 22.8 °F 19.0 °F 30.02 in SW 2.0 mph 4.0 mph 86% 0.00 in 0 W/m2
07:15 23.1 °F 20.0 °F 30.01 in SSW 2.0 mph 6.0 mph 86% 0.00 in 0 W/m2
07:30 23.3 °F 20.0 °F 30.01 in SSW 2.0 mph 5.0 mph 86% 0.00 in 0 W/m2
07:45 23.0 °F 19.0 °F 30.01 in SSW 1.0 mph 6.0 mph 86% 0.00 in 7 W/m2
08:00 22.8 °F 19.0 °F 30.01 in SSW 3.0 mph 4.0 mph 86% 0.00 in 30 W/m2
08:15 23.2 °F 20.0 °F 30.01 in SSW 1.0 mph 5.0 mph 86% 0.00 in 49 W/m2
08:30 23.8 °F 20.0 °F 30.02 in Calm   3.0 mph 86% 0.00 in 47 W/m2
08:45 24.6 °F 21.0 °F 30.02 in Calm   3.0 mph 86% 0.00 in 44 W/m2
09:00 25.8 °F 22.0 °F 30.02 in Calm   1.0 mph 86% 0.00 in 186 W/m2
09:15 27.6 °F 23.0 °F 30.02 in Calm   1.0 mph 84% 0.00 in 225 W/m2
09:30 30.3 °F 25.0 °F 30.01 in SSW 3.0 mph 3.0 mph 80% 0.00 in 279 W/m2
09:45 30.3 °F 24.0 °F 30.01 in Calm   4.0 mph 76% 0.00 in 325 W/m2
10:00 30.9 °F 25.0 °F 30.01 in SSW 1.0 mph 2.0 mph 77% 0.00 in 369 W/m2
10:15 33.0 °F 26.0 °F 30.01 in SSW 1.0 mph 3.0 mph 74% 0.00 in 415 W/m2
10:30 34.2 °F 25.0 °F 30.01 in SW 2.0 mph 4.0 mph 70% 0.00 in 457 W/m2
10:45 34.5 °F 25.0 °F 30.01 in SW 1.0 mph 4.0 mph 69% 0.00 in 494 W/m2
11:00 36.0 °F 26.0 °F 30.00 in SW 2.0 mph 3.0 mph 67% 0.00 in 531 W/m2
11:15 36.1 °F 25.0 °F 30.00 in WNW 4.0 mph 6.0 mph 65% 0.00 in 568 W/m2
11:30 36.1 °F 25.0 °F 30.00 in NNW 2.0 mph 8.0 mph 65% 0.00 in 594 W/m2
11:46 36.3 °F 25.0 °F 30.00 in NNW 3.0 mph 8.0 mph 65% 0.00 in 621 W/m2
12:01 36.8 °F 26.0 °F 30.00 in NNW 2.0 mph 9.0 mph 66% 0.00 in 647 W/m2
12:16 37.4 °F 27.0 °F 30.00 in NNE 4.0 mph 10.0 mph 66% 0.00 in 666 W/m2
12:31 36.4 °F 26.0 °F 29.99 in North 5.0 mph 13.0 mph 67% 0.00 in 684 W/m2
12:46 36.1 °F 27.0 °F 29.99 in North 5.0 mph 12.0 mph 70% 0.00 in 698 W/m2
13:01 36.2 °F 27.0 °F 29.99 in North 11.0 mph 11.0 mph 70% 0.00 in 708 W/m2
13:16 35.6 °F 27.0 °F 29.99 in NNW 8.0 mph 11.0 mph 70% 0.00 in 714 W/m2
13:31 35.9 °F 28.0 °F 29.99 in North 7.0 mph 11.0 mph 72% 0.00 in 717 W/m2
13:46 36.2 °F 28.0 °F 29.99 in North 6.0 mph 11.0 mph 72% 0.00 in 715 W/m2
14:01 36.2 °F 28.0 °F 29.99 in NNW 6.0 mph 12.0 mph 71% 0.00 in 710 W/m2
14:16 36.8 °F 29.0 °F 29.98 in North 5.0 mph 11.0 mph 72% 0.00 in 703 W/m2
14:31 36.6 °F 28.0 °F 29.98 in NNW 8.0 mph 14.0 mph 72% 0.00 in 691 W/m2
14:46 37.2 °F 29.0 °F 29.98 in North 10.0 mph 11.0 mph 71% 0.00 in 675 W/m2
15:01 37.2 °F 28.0 °F 29.98 in North 6.0 mph 12.0 mph 69% 0.00 in 657 W/m2
15:16 37.5 °F 28.0 °F 29.98 in NE 4.0 mph 10.0 mph 69% 0.00 in 635 W/m2
15:31 38.0 °F 29.0 °F 29.97 in NNE 3.0 mph 10.0 mph 69% 0.00 in 612 W/m2
15:46 38.3 °F 29.0 °F 29.97 in North 4.0 mph 9.0 mph 69% 0.00 in 584 W/m2
16:01 38.4 °F 29.0 °F 29.97 in North 10.0 mph 10.0 mph 68% 0.00 in 557 W/m2
16:16 38.4 °F 29.0 °F 29.98 in North 6.0 mph 11.0 mph 68% 0.00 in 520 W/m2
16:31 38.2 °F 29.0 °F 29.97 in North 9.0 mph 12.0 mph 69% 0.00 in 483 W/m2
16:46 38.1 °F 29.0 °F 29.97 in NNE 4.0 mph 11.0 mph 70% 0.00 in 445 W/m2
17:01 37.9 °F 29.0 °F 29.97 in North 5.0 mph 13.0 mph 71% 0.00 in 403 W/m2
17:16 38.2 °F 29.0 °F 29.96 in NNW 10.0 mph 11.0 mph 70% 0.00 in 364 W/m2
17:31 37.8 °F 29.0 °F 29.96 in North 7.0 mph 13.0 mph 71% 0.00 in 318 W/m2
17:46 37.6 °F 29.0 °F 29.96 in NE 4.0 mph 11.0 mph 71% 0.00 in 271 W/m2
18:01 37.3 °F 29.0 °F 29.96 in North 10.0 mph 12.0 mph 72% 0.00 in 223 W/m2
18:16 37.0 °F 29.0 °F 29.97 in NNE 3.0 mph 11.0 mph 72% 0.00 in 37 W/m2
18:32 36.6 °F 29.0 °F 29.96 in North 5.0 mph 11.0 mph 73% 0.00 in 33 W/m2
18:47 36.0 °F 28.0 °F 29.97 in North 5.0 mph 11.0 mph 74% 0.00 in 28 W/m2
19:02 35.6 °F 28.0 °F 29.97 in North 7.0 mph 10.0 mph 75% 0.00 in 23 W/m2
19:17 35.0 °F 28.0 °F 29.97 in North 8.0 mph 12.0 mph 76% 0.00 in 16 W/m2
19:32 34.2 °F 28.0 °F 29.97 in NNE 1.0 mph 10.0 mph 78% 0.00 in 7 W/m2
19:47 33.4 °F 28.0 °F 29.97 in North 3.0 mph 11.0 mph 79% 0.00 in 0 W/m2
20:02 32.9 °F 27.0 °F 29.97 in NNE 7.0 mph 9.0 mph 80% 0.00 in 0 W/m2
20:17 32.4 °F 27.0 °F 29.97 in NNE 5.0 mph 10.0 mph 80% 0.00 in 0 W/m2
20:32 31.9 °F 26.0 °F 29.98 in NNE 7.0 mph 10.0 mph 80% 0.00 in 0 W/m2
20:47 31.6 °F 26.0 °F 29.97 in North 3.0 mph 9.0 mph 80% 0.00 in 0 W/m2
21:02 31.4 °F 26.0 °F 29.98 in NNE 3.0 mph 8.0 mph 81% 0.00 in 0 W/m2
21:17 31.2 °F 26.0 °F 29.98 in North 3.0 mph 8.0 mph 81% 0.00 in 0 W/m2
21:32 30.7 °F 26.0 °F 29.98 in NNE 2.0 mph 10.0 mph 81% 0.00 in 0 W/m2
21:47 30.1 °F 25.0 °F 29.98 in NNE 3.0 mph 6.0 mph 81% 0.00 in 0 W/m2
22:02 29.8 °F 25.0 °F 29.98 in NNE 2.0 mph 8.0 mph 82% 0.00 in 0 W/m2
22:17 29.6 °F 25.0 °F 29.98 in NNE 2.0 mph 8.0 mph 82% 0.00 in 0 W/m2
22:32 29.3 °F 24.0 °F 29.98 in NNE 3.0 mph 6.0 mph 82% 0.00 in 0 W/m2
22:47 29.0 °F 24.0 °F 29.98 in NE 3.0 mph 8.0 mph 82% 0.00 in 0 W/m2
23:02 28.4 °F 23.0 °F 29.99 in NE 3.0 mph 5.0 mph 81% 0.00 in 0 W/m2
23:17 27.6 °F 23.0 °F 29.99 in NNE 1.0 mph 4.0 mph 82% 0.00 in 0 W/m2
23:32 27.3 °F 23.0 °F 29.99 in NNE 4.0 mph 6.0 mph 83% 0.00 in 0 W/m2
23:47 26.8 °F 22.0 °F 29.99 in NNE 4.0 mph 5.0 mph 83% 0.00 in 0 W/m2